• Join FlightAware (Why Join?)
  • Login
  • US Flag 
Gobble Gobble! 
02:24AM EST


 

Airport Tracker/Info


-or-


 

Live Flight TrackerFlight Track Log ✈ TRS457 ✈ 22/Apr/2013 ✈ KMCO - KDAY

Flight Track Log - Related Links

Times and Time Zones

All times are in EDT time to prevent confusion due to time zone crossing. See the TRS457 flight status page for this flight to view local times or setup timezone preferences in your user account.

Time Position Orientation Groundspeed Altitude Reporting Facility
EDT Latitude Longitude Course Direction KTS MPH feet Rate Location/Type
10:45PM 28.4333 -81.3000 24° Northeast 152 175 1,000  Level Orlando TRACON
10:45PM 28.4667 -81.2833 24° Northeast 190 219 1,600 1,980 Climbing Orlando TRACON
10:47PM 28.5333 -81.2667 12° North 260 299 4,400 2,700 Climbing Orlando TRACON
10:47PM 28.6000 -81.2667 360° North 265 305 7,000 2,340 Climbing Orlando TRACON
10:49PM 28.7269 -81.3347 335° Northwest 299 344 10,900 1,980 Climbing Jacksonville Center
10:50PM 28.8192 -81.3736 340° North 322 371 12,700 2,040 Climbing Jacksonville Center
10:51PM 28.9156 -81.4100 342° North 344 396 15,000 2,280 Climbing Jacksonville Center
10:52PM 29.0183 -81.4464 343° North 371 427 17,300 2,160 Climbing Jacksonville Center
10:53PM 29.1231 -81.4831 343° North 376 433 19,400 1,920 Climbing Jacksonville Center
10:54PM 29.2236 -81.5267 339° North 382 440 21,200 1,500 Climbing Jacksonville Center
10:56PM 29.4458 -81.6119 342° North 395 455 24,000 1,560 Climbing Jacksonville Center
10:57PM 29.5506 -81.6464 344° North 406 467 25,900 1,560 Climbing Jacksonville Center
10:58PM 29.6639 -81.6903 341° North 412 474 27,200 1,320 Climbing Jacksonville Center
10:59PM 29.7769 -81.7319 342° North 422 486 28,600 1,320 Climbing Jacksonville Center
11:00PM 29.8900 -81.7739 342° North 422 486 29,900 1,140 Climbing Jacksonville Center
11:01PM 30.0031 -81.8156 342° North 427 491 30,900 1,140 Climbing Jacksonville Center
11:02PM 30.1161 -81.8553 343° North 427 491 32,200 1,020 Climbing Jacksonville Center
11:03PM 30.2292 -81.8900 345° North 427 491 33,000 360 Climbing Jacksonville Center
11:04PM 30.3583 -81.8669 North 427 491 33,000  Level Jacksonville Center
11:05PM 30.4814 -81.8511 North 433 498 33,000  Level Jacksonville Center
11:06PM 30.6214 -81.8353 North 445 512 33,000  Level Jacksonville Center
11:07PM 30.7442 -81.8194 North 445 512 33,000  Level Jacksonville Center
11:08PM 30.8656 -81.8253 358° North 440 506 33,000  Level Jacksonville Center
11:09PM 30.9703 -81.8797 336° Northwest 411 473 33,000  Level Jacksonville Center
11:10PM 31.0772 -81.9417 334° Northwest 416 479 33,000  Level Jacksonville Center
11:11PM 31.1800 -82.0064 332° Northwest 417 480 33,000  Level Jacksonville Center
11:12PM 31.2850 -82.0708 332° Northwest 422 486 33,000  Level Jacksonville Center
11:13PM 31.3897 -82.1333 333° Northwest 422 486 33,000  Level Jacksonville Center
11:14PM 31.4944 -82.1933 334° Northwest 415 478 33,000  Level Jacksonville Center
11:15PM 31.6011 -82.2558 333° Northwest 421 484 33,000  Level Jacksonville Center
11:16PM 31.7039 -82.3164 333° Northwest 414 476 33,000  Level Jacksonville Center
11:18PM 31.9072 -82.4339 334° Northwest 418 481 33,000  Level Atlanta Center
11:19PM 32.0061 -82.4958 332° Northwest 413 475 33,000  Level Atlanta Center
11:20PM 32.1072 -82.5578 333° Northwest 408 470 33,000  Level Atlanta Center
11:21PM 32.2183 -82.6003 342° North 408 470 33,000  Level Atlanta Center
11:22PM 32.3294 -82.6403 343° North 414 476 33,000  Level Atlanta Center
11:23PM 32.4425 -82.6753 345° North 419 482 33,000  Level Atlanta Center
11:24PM 32.5536 -82.7156 343° North 419 482 33,000  Level Atlanta Center
11:25PM 32.6561 -82.7486 345° North 418 481 33,000 120 Level Atlanta Center
11:26PM 32.7672 -82.7864 344° North 418 481 33,300 480 Climbing Atlanta Center
11:27PM 32.8803 -82.8269 343° North 418 481 34,000 300 Climbing Atlanta Center
11:28PM 32.9933 -82.8650 344° North 418 481 34,000  Level Atlanta Center
11:29PM 33.1086 -82.9031 345° North 418 481 34,000  Level Atlanta Center
11:30PM 33.2361 -82.9436 345° North 429 494 34,000  Level Atlanta Center
11:31PM 33.3492 -82.9844 343° North 429 494 34,000  Level Atlanta Center
11:32PM 33.4603 -83.0228 344° North 416 479 34,000  Level Atlanta Center
11:33PM 33.5692 -83.0614 344° North 411 473 34,000  Level Atlanta Center
11:34PM 33.6717 -83.0953 345° North 411 473 34,000  Level Atlanta Center
11:35PM 33.7825 -83.1342 344° North 416 479 34,000  Level Atlanta Center
11:36PM 33.8933 -83.1728 344° North 416 479 34,000  Level Atlanta Center
11:37PM 34.0044 -83.2144 343° North 411 473 34,000  Level Atlanta Center
11:38PM 34.1131 -83.2508 344° North 416 479 34,000  Level Atlanta Center
11:39PM 34.2281 -83.2900 344° North 421 484 34,000  Level Atlanta Center
11:40PM 34.3389 -83.3294 344° North 421 484 34,000  Level Atlanta Center
11:41PM 34.4500 -83.3714 343° North 421 484 34,000  Level Atlanta Center
11:42PM 34.5628 -83.4108 344° North 421 484 34,000  Level Atlanta Center
11:43PM 34.6736 -83.4503 344° North 415 478 34,000  Level Atlanta Center
11:44PM 34.7822 -83.4900 343° North 409 471 34,000  Level Atlanta Center
11:45PM 34.8950 -83.5297 344° North 409 471 34,000  Level Atlanta Center
11:46PM 35.0058 -83.5697 344° North 409 471 34,000  Level Atlanta Center
11:47PM 35.1208 -83.6097 344° North 414 476 34,000  Level Atlanta Center
11:48PM 35.2336 -83.6522 343° North 420 483 34,000  Level Atlanta Center
11:49PM 35.3464 -83.6925 344° North 420 483 34,000  Level Atlanta Center
11:50PM 35.4614 -83.7353 343° North 420 483 34,000  Level Atlanta Center
11:51PM 35.5761 -83.7758 344° North 420 483 34,000  Level Atlanta Center
11:52PM 35.6867 -83.8164 343° North 420 483 34,000  Level Atlanta Center
11:53PM 35.8017 -83.8594 343° North 420 483 34,000  Level Atlanta Center
11:54PM 35.9122 -83.8978 344° North 420 483 34,000  Level Atlanta Center
11:56PM 36.1872 -83.9367 353° North 421 484 34,000  Level Indianapolis Center
11:58PM 36.3014 -83.9533 353° North 418 481 34,000  Level Indianapolis Center
11:59PM 36.4156 -83.9708 353° North 415 478 34,000  Level Indianapolis Center
12:00AM 36.5417 -83.9886 354° North 416 479 34,000  Level Indianapolis Center
12:01AM 36.6564 -84.0067 353° North 415 478 34,000  Level Indianapolis Center
12:02AM 36.7736 -84.0239 353° North 418 481 34,000  Level Indianapolis Center
12:03AM 36.8889 -84.0411 353° North 418 481 34,000 -600 Level Indianapolis Center
12:04AM 37.0042 -84.0578 353° North 416 479 32,800 -1,020 Descending Indianapolis Center
12:05AM 37.1219 -84.0756 353° North 421 484 32,000 -420 Descending Indianapolis Center
12:06AM 37.2408 -84.0925 354° North 426 490 32,000  Level Indianapolis Center
12:07AM 37.3572 -84.1119 352° North 423 487 32,000  Level Indianapolis Center
12:08AM 37.4753 -84.1283 354° North 424 488 32,000 -60 Level Indianapolis Center
12:09AM 37.5928 -84.1464 353° North 425 489 31,900 -840 Descending Indianapolis Center
12:10AM 37.7117 -84.1633 354° North 427 491 30,400 -1,500 Descending Indianapolis Center
12:11AM 37.8275 -84.1856 351° North 422 486 28,900 -1,980 Descending Indianapolis Center
12:12AM 37.9531 -84.2039 353° North 440 506 26,400 -1,920 Descending Indianapolis Center
12:13AM 38.0753 -84.2242 353° North 442 509 25,100 -900 Descending Indianapolis Center
12:14AM 38.2003 -84.2400 354° North 446 513 24,600 -600 Descending Indianapolis Center
12:15AM 38.3247 -84.2586 353° North 449 517 24,000 -600 Descending Indianapolis Center
12:16AM 38.4494 -84.2786 353° North 449 517 23,500 -1,740 Descending Indianapolis Center
12:17AM 38.5922 -84.3003 353° North 442 509 20,600 -2,880 Descending Indianapolis Center
12:18AM 38.6914 -84.3258 349° North 423 487 17,700 -3,060 Descending Indianapolis Center
12:19AM 38.7978 -84.3742 341° North 401 461 14,400 -2,280 Descending Indianapolis Center
12:20AM 38.9033 -84.4217 341° North 397 457 13,200 -1,020 Descending Indianapolis Center
12:21AM 39.0083 -84.4681 341° North 396 456 12,400 -900 Descending Indianapolis Center
12:21AM 39.0667 -84.4833 349° North 393 452 12,000 -420 Descending Cincinnati TRACON
12:22AM 39.1256 -84.5219 333° Northwest 394 453 12,000 -660 Level Indianapolis Center
12:23AM 39.2211 -84.5386 352° North 398 458 11,000 -1,080 Descending Indianapolis Center
12:24AM 39.3150 -84.4672 30° Northeast 391 450 9,900 -600 Descending Indianapolis Center
12:25AM 39.4017 -84.3978 32° Northeast 376 433 9,900  Level Indianapolis Center
12:26AM 39.4844 -84.3322 31° Northeast 356 410 9,900 -480 Level Indianapolis Center
12:27AM 39.5614 -84.2722 31° Northeast 333 383 9,000 -1,560 Descending Indianapolis Center
12:28AM 39.6325 -84.2161 31° Northeast 305 351 6,800 -1,680 Descending Indianapolis Center
12:29AM 39.7058 -84.1628 29° Northeast 300 345 5,700 -1,380 Descending Indianapolis Center
12:30AM 39.7772 -84.1128 28° Northeast 294 338 4,000 -1,200 Descending Indianapolis Center
12:31AM 39.8467 -84.0664 27° Northeast 285 328 3,300 -600 Descending Indianapolis Center
12:32AM 39.9136 -84.0533 North 257 296 2,900 -360 Descending Indianapolis Center
12:33AM 39.9503 -84.1000 316° Northwest 212 244 2,600 -540 Descending Indianapolis Center
12:34AM 39.9281 -84.1528 241° Southwest 177 204 1,900 -720 Descending Indianapolis Center
12:35AM 39.9075 -84.1917 235° Southwest 149 171 1,200 -720 Descending Indianapolis Center